Archival Weather

Ronald Reagan Washington Ntl

Arlington, Virginia (KDCA)

Report from: Sunday, March 19, 2023 5:52 AM EDT
Current time: Monday, December 11, 2023 11:12 AM EST

Current weather – Weather history – Daily summaries
Weather forecast

Temperature0.0°C (32.0°F)
Wind chill-6.6°C (20.1°F)
Dew point-12.8°C (9.0°F)
Winds 17 kts (8.7 m/s, 19.6 mph) Northwest (310°)
Wind gusts 27 kts (13.9 m/s, 31.1 mph)
Peak wind 33 kts (17 m/s, 38 mph) North-Northwest (330°) at 09:17
Visibility10 mi. (16.1 km)
Clouds Ceiling: Broken clouds 25,000 ft. (7,620 m)
Altimeter30.10 in.Hg (1019 mB)
Relative humidity37 %
Density altitude-1,997 ft. (-609 m)
Sea-level pressure101.9 kPa (1019 mB, 30.10 in.Hg)
Remarks System requires maintenance
Automated weather observing station with precipitation discriminator
Flight conditions Visual Meteorological Conditions
Raw dataKDCA 190952Z 31017G27KT 10SM BKN250 00/M13 A3010 RMK AO2 PK WND 33033/0917 SLP193 T00001128 $
An error has occurred. This application may no longer respond until reloaded. Reload 🗙